»·PEaware :: N365EA KSBA-KSAN

N365EA :: KSBA-KSAN

FLIGHT INFORMATION

Flight Status: Arrived
Operator: Privately registered:
United States
More flights under this callsign
Pilot: Anonymous 24416 (24416)
Aircraft: CESSNA 550 CITATION 2/S2/BRAVO
(C550)
More flights by this aircraft type
Origin: KSBA Santa Barbara Mun
United States
Destination: KSAN San Diego Intl-Lindbergh
United States
More flights between these airports :: More routes between these airports
Route: +
File this flight plan on PilotEdge
Remarks:
Altitude:
(Current/Filed)
13,500ft
Speed:
(Current/Filed)
0kts
Departed: 05-Jan-20 07:25 PM
Arrived: 05-Jan-20 08:18 PM
Distance/Time
Traveled:
167nm/0:52
Distance/Time
To Go:
Arrived

Flight Plot

Page will automatically refresh every two minutes.

Flight plan parsing failed; only flown route is shown


Map Options




Map Legend


Flown Route
Filed Route
Departure Airport
Arrival Airport
Navaid (VOR, NDB)
Fix

Horizontal Profiles

Position Reports

Time Latitude Longitude Heading Altitude Ground
Speed
05-Jan-20 19:14 34.422498 -119.836271 45 12ft 0kts
05-Jan-20 19:15 34.422498 -119.836271 45 12ft 0kts
05-Jan-20 19:16 34.422498 -119.836271 45 12ft 0kts
05-Jan-20 19:17 34.422764 -119.836498 262 12ft 2kts
05-Jan-20 19:18 34.423244 -119.837332 356 13ft 8kts
05-Jan-20 19:19 34.425390 -119.837940 344 13ft 5kts
05-Jan-20 19:20 34.426715 -119.837659 87 12ft 6kts
05-Jan-20 19:21 34.426751 -119.835404 88 11ft 5kts
05-Jan-20 19:22 34.427092 -119.834612 359 11ft 0kts
05-Jan-20 19:23 34.427379 -119.834635 356 11ft 6kts
05-Jan-20 19:24 34.427768 -119.841563 268 15ft 83kts
05-Jan-20 19:25 34.427030 -119.879786 266 896ft 129kts
05-Jan-20 19:26 34.426304 -119.925994 270 1490ft 144kts
05-Jan-20 19:27 34.409203 -119.966467 199 2397ft 145kts
05-Jan-20 19:28 34.385149 -119.939081 82 3692ft 160kts
05-Jan-20 19:29 34.393420 -119.887510 62 5118ft 168kts
05-Jan-20 19:30 34.412692 -119.832638 68 6591ft 190kts
05-Jan-20 19:31 34.423060 -119.765913 89 8168ft 220kts
05-Jan-20 19:32 34.417356 -119.690425 88 9735ft 233kts
05-Jan-20 19:33 34.412127 -119.614159 88 11561ft 230kts
05-Jan-20 19:34 34.406276 -119.535303 88 13069ft 239kts
05-Jan-20 19:35 34.400358 -119.455804 89 13480ft 241kts
05-Jan-20 19:36 34.390799 -119.369422 95 13391ft 273kts
05-Jan-20 19:37 34.389582 -119.279579 82 13780ft 243kts
05-Jan-20 19:38 34.382253 -119.206725 89 13485ft 209kts
05-Jan-20 19:39 34.376004 -119.127709 90 13518ft 267kts
05-Jan-20 19:40 34.368443 -119.030930 90 13520ft 303kts
05-Jan-20 19:41 34.360258 -118.926302 93 13518ft 320kts
05-Jan-20 19:42 34.295191 -118.858722 164 13520ft 328kts
05-Jan-20 19:43 34.207318 -118.826285 166 13518ft 331kts
05-Jan-20 19:44 34.119369 -118.794039 166 13519ft 331kts
05-Jan-20 19:45 34.037849 -118.746557 125 13513ft 338kts
05-Jan-20 19:46 34.000249 -118.642751 109 13500ft 338kts
05-Jan-20 19:47 33.966751 -118.537213 109 13495ft 338kts
05-Jan-20 19:48 33.929402 -118.433405 128 13501ft 338kts
05-Jan-20 19:49 33.861579 -118.355577 139 13503ft 337kts
05-Jan-20 19:50 33.791942 -118.281565 140 13502ft 336kts
05-Jan-20 19:51 33.721788 -118.207083 140 13499ft 336kts
05-Jan-20 19:52 33.651701 -118.132857 140 13494ft 336kts
05-Jan-20 19:53 33.581351 -118.058519 140 13491ft 337kts
05-Jan-20 19:54 33.511078 -117.984420 140 13496ft 336kts
05-Jan-20 19:55 33.445347 -117.915247 140 12686ft 294kts
05-Jan-20 19:56 33.385979 -117.852912 139 11787ft 282kts
05-Jan-20 19:57 33.327100 -117.791163 139 10897ft 282kts
05-Jan-20 19:58 33.272752 -117.725048 110 10009ft 280kts
05-Jan-20 19:59 33.248270 -117.639489 105 9118ft 262kts
05-Jan-20 20:00 33.227082 -117.560812 107 8225ft 227kts
05-Jan-20 20:01 33.207748 -117.493951 107 7176ft 203kts
05-Jan-20 20:02 33.187598 -117.434300 129 6131ft 186kts
05-Jan-20 20:03 33.152732 -117.391203 134 5143ft 176kts
05-Jan-20 20:04 33.111679 -117.362162 153 4149ft 170kts
05-Jan-20 20:05 33.069271 -117.341001 156 3473ft 156kts
05-Jan-20 20:06 33.029601 -117.320494 144 3475ft 161kts
05-Jan-20 20:07 32.991179 -117.293881 161 3472ft 155kts
05-Jan-20 20:09 32.949514 -117.285821 171 3472ft 149kts
05-Jan-20 20:10 32.909139 -117.276313 162 3471ft 147kts
05-Jan-20 20:11 32.866740 -117.259991 164 3414ft 164kts
05-Jan-20 20:12 32.829812 -117.247136 165 2997ft 129kts
05-Jan-20 20:13 32.793297 -117.234196 163 2162ft 138kts
05-Jan-20 20:14 32.764132 -117.210703 121 1584ft 122kts
05-Jan-20 20:15 32.757473 -117.172856 95 1753ft 110kts
05-Jan-20 20:16 32.742784 -117.147217 179 1233ft 109kts
05-Jan-20 20:17 32.728613 -117.169574 287 334ft 96kts
05-Jan-20 20:18 32.734105 -117.190953 355 18ft 9kts
05-Jan-20 20:19 32.734841 -117.190359 84 18ft 7kts

Navigation Log

Ident Type
Flight plan parsing failed, navigation log unavailable